createdAt,value
2022-10-08T00:02:19.193Z,14.73
2022-10-08T00:04:51.609Z,14.75
2022-10-08T00:07:23.818Z,14.74
2022-10-08T00:09:56.177Z,14.73
2022-10-08T00:12:28.402Z,14.74
2022-10-08T00:15:00.854Z,14.72
2022-10-08T00:17:33.252Z,14.69
2022-10-08T00:20:06.210Z,14.68
2022-10-08T00:22:38.512Z,14.69
2022-10-08T00:25:11.398Z,14.68
2022-10-08T00:27:43.649Z,14.68
2022-10-08T00:30:17.661Z,14.66
2022-10-08T00:32:50.285Z,14.65
2022-10-08T00:35:22.622Z,14.63
2022-10-08T00:37:54.936Z,14.61
2022-10-08T00:40:27.241Z,14.57
2022-10-08T00:43:00.489Z,14.57
2022-10-08T00:45:33.852Z,14.59
2022-10-08T00:48:07.018Z,14.62
2022-10-08T00:50:40.004Z,14.63
2022-10-08T00:53:12.445Z,14.63
2022-10-08T00:55:45.048Z,14.63
2022-10-08T00:58:21.820Z,14.65
2022-10-08T01:00:54.750Z,14.64
2022-10-08T01:03:27.132Z,14.64
2022-10-08T01:06:10.549Z,14.63
2022-10-08T01:08:50.493Z,14.65
2022-10-08T01:11:34.667Z,14.66
2022-10-08T01:14:20.963Z,14.69
2022-10-08T01:16:59.450Z,14.69
2022-10-08T01:19:59.782Z,14.68
2022-10-08T01:22:44.749Z,14.70
2022-10-08T01:25:34.339Z,14.69
2022-10-08T01:28:15.043Z,14.67
2022-10-08T01:30:53.373Z,14.65
2022-10-08T01:33:30.446Z,14.62
2022-10-08T01:36:04.314Z,14.64
2022-10-08T01:38:41.328Z,14.61
2022-10-08T01:41:16.356Z,14.57
2022-10-08T01:43:52.736Z,14.54
2022-10-08T01:46:29.210Z,14.54
2022-10-08T01:49:08.113Z,14.58
2022-10-08T01:51:48.129Z,14.58
2022-10-08T01:54:22.113Z,14.60
2022-10-08T01:56:56.679Z,14.62
2022-10-08T01:59:33.729Z,14.63
2022-10-08T02:02:12.570Z,14.65
2022-10-08T02:04:45.142Z,14.66
2022-10-08T02:07:20.525Z,14.66
2022-10-08T02:09:55.317Z,14.66
2022-10-08T02:12:27.697Z,14.67
2022-10-08T02:15:01.165Z,14.69
2022-10-08T02:17:41.691Z,14.70
2022-10-08T02:20:22.523Z,14.71
2022-10-08T02:23:00.909Z,14.72
2022-10-08T02:25:38.530Z,14.73
2022-10-08T02:28:19.197Z,14.73
2022-10-08T02:30:55.208Z,14.74
2022-10-08T02:33:33.080Z,14.75
2022-10-08T02:36:09.537Z,14.73
2022-10-08T02:38:47.921Z,14.69
2022-10-08T02:41:23.061Z,14.67
2022-10-08T02:43:59.666Z,14.66
2022-10-08T02:46:38.229Z,14.67
2022-10-08T02:49:16.122Z,14.67
2022-10-08T02:51:51.659Z,14.67
2022-10-08T02:54:25.393Z,14.64
2022-10-08T02:57:07.127Z,14.64
2022-10-08T02:59:42.318Z,14.64
2022-10-08T03:02:19.123Z,14.63
2022-10-08T03:04:59.499Z,14.61
2022-10-08T03:07:34.053Z,14.59
2022-10-08T03:10:10.563Z,14.58
2022-10-08T03:12:43.202Z,14.58
2022-10-08T03:15:17.188Z,14.55
2022-10-08T03:17:50.139Z,14.51
2022-10-08T03:20:23.401Z,14.49
2022-10-08T03:22:57.682Z,14.47
2022-10-08T03:25:30.040Z,14.46
2022-10-08T03:28:02.297Z,14.46
2022-10-08T03:30:34.699Z,14.45
2022-10-08T03:33:07.062Z,14.44
2022-10-08T03:35:44.850Z,14.43
2022-10-08T03:38:17.787Z,14.40
2022-10-08T03:40:59.676Z,14.39
2022-10-08T03:43:34.932Z,14.39
2022-10-08T03:46:08.659Z,14.40
2022-10-08T03:48:41.747Z,14.39
2022-10-08T03:51:15.725Z,14.37
2022-10-08T03:53:48.286Z,14.37
2022-10-08T03:56:24.340Z,14.37
2022-10-08T03:58:59.878Z,14.37
2022-10-08T04:01:32.533Z,14.38
2022-10-08T04:04:04.996Z,14.37
2022-10-08T04:06:37.293Z,14.36
2022-10-08T04:09:10.369Z,14.37
2022-10-08T04:11:42.645Z,14.36
2022-10-08T04:14:14.958Z,14.34
2022-10-08T04:16:48.205Z,14.33
2022-10-08T04:19:20.461Z,14.33
2022-10-08T04:21:52.833Z,14.33
2022-10-08T04:24:25.152Z,14.32
2022-10-08T04:26:57.419Z,14.32
2022-10-08T04:29:30.353Z,14.31
2022-10-08T04:32:02.650Z,14.31
2022-10-08T04:34:34.857Z,14.31
2022-10-08T04:37:07.120Z,14.31
2022-10-08T04:39:39.327Z,14.31
2022-10-08T04:42:11.549Z,14.30
2022-10-08T04:44:43.906Z,14.28
2022-10-08T04:47:16.294Z,14.26
2022-10-08T04:49:48.468Z,14.24
2022-10-08T04:52:20.967Z,14.22
2022-10-08T04:54:53.206Z,14.19
2022-10-08T04:57:25.400Z,14.16
2022-10-08T05:00:17.578Z,14.15
2022-10-08T05:02:50.972Z,14.13
2022-10-08T05:05:24.104Z,14.09
2022-10-08T05:07:56.983Z,14.05
2022-10-08T05:10:29.234Z,14.03
2022-10-08T05:13:01.653Z,14.00
2022-10-08T05:15:35.509Z,13.97
2022-10-08T05:18:07.804Z,13.94
2022-10-08T05:20:40.237Z,13.90
2022-10-08T05:23:12.629Z,13.89
2022-10-08T05:25:44.993Z,13.88
2022-10-08T05:28:17.628Z,13.87
2022-10-08T05:30:50.122Z,13.87
2022-10-08T05:33:22.383Z,13.89
2022-10-08T05:35:54.649Z,13.89
2022-10-08T05:38:30.284Z,13.87
2022-10-08T05:41:14.156Z,13.87
2022-10-08T05:43:47.250Z,13.88
2022-10-08T05:46:20.084Z,13.89
2022-10-08T05:48:55.656Z,13.90
2022-10-08T05:51:29.147Z,13.91
2022-10-08T05:54:02.418Z,13.91
2022-10-08T05:56:34.785Z,13.92
2022-10-08T05:59:07.123Z,13.95
2022-10-08T06:01:47.188Z,14.00
2022-10-08T06:04:20.006Z,14.07
2022-10-08T06:06:52.417Z,14.13
2022-10-08T06:09:24.750Z,14.19
2022-10-08T06:11:58.035Z,14.27
2022-10-08T06:14:30.309Z,14.33
2022-10-08T06:17:02.524Z,14.41
2022-10-08T06:19:35.541Z,14.48
2022-10-08T06:22:08.655Z,14.56
2022-10-08T06:24:40.942Z,14.61
2022-10-08T06:27:13.391Z,14.65
2022-10-08T06:29:45.730Z,14.72
2022-10-08T06:32:18.211Z,14.79
2022-10-08T06:34:50.453Z,14.87
2022-10-08T06:37:22.664Z,14.94
2022-10-08T06:39:54.824Z,15.05
2022-10-08T06:42:27.003Z,15.13
2022-10-08T06:45:02.198Z,15.25
2022-10-08T06:47:35.380Z,15.35
2022-10-08T06:50:09.204Z,15.45
2022-10-08T06:52:41.458Z,15.55
2022-10-08T06:55:13.730Z,15.66
2022-10-08T06:57:45.976Z,15.75
2022-10-08T07:00:18.768Z,15.86
2022-10-08T07:02:51.048Z,15.97
2022-10-08T07:05:23.313Z,16.06
2022-10-08T07:07:55.681Z,16.16
2022-10-08T07:10:33.029Z,16.25
2022-10-08T07:13:06.108Z,16.29
2022-10-08T07:15:38.536Z,16.36
2022-10-08T07:18:12.341Z,16.43
2022-10-08T07:20:44.493Z,16.50
2022-10-08T07:23:16.761Z,16.60
2022-10-08T07:25:58.122Z,16.71
2022-10-08T07:28:33.408Z,16.83
2022-10-08T07:31:09.927Z,16.89
2022-10-08T07:33:42.206Z,16.95
2022-10-08T07:36:15.679Z,17.02
2022-10-08T07:38:48.511Z,17.09
2022-10-08T07:41:20.846Z,17.17
2022-10-08T07:43:55.885Z,17.23
2022-10-08T07:46:29.060Z,17.31
2022-10-08T07:49:01.872Z,17.36
2022-10-08T07:51:35.530Z,17.45
2022-10-08T07:54:09.775Z,17.54
2022-10-08T07:56:42.005Z,17.62
2022-10-08T07:59:16.203Z,17.62
2022-10-08T08:01:48.724Z,17.59
2022-10-08T08:04:21.260Z,17.62
2022-10-08T08:06:53.601Z,17.70
2022-10-08T08:09:25.882Z,17.79
2022-10-08T08:11:58.105Z,17.84
2022-10-08T08:14:30.360Z,17.85
2022-10-08T08:17:02.655Z,17.81
2022-10-08T08:19:35.057Z,17.77
2022-10-08T08:22:07.346Z,17.71
2022-10-08T08:24:39.549Z,17.69
2022-10-08T08:27:11.810Z,17.68
2022-10-08T08:29:44.065Z,17.64
2022-10-08T08:32:16.343Z,17.61
2022-10-08T08:34:48.744Z,17.56
2022-10-08T08:37:21.464Z,17.51
2022-10-08T08:39:53.752Z,17.50
2022-10-08T08:42:40.521Z,17.49
2022-10-08T08:45:45.436Z,17.45
2022-10-08T08:48:21.322Z,17.44
2022-10-08T08:50:58.837Z,17.48
2022-10-08T08:53:31.569Z,17.54
2022-10-08T08:56:08.240Z,17.55
2022-10-08T08:58:47.422Z,17.57
2022-10-08T09:01:26.196Z,17.59
2022-10-08T09:04:06.212Z,17.63
2022-10-08T09:06:39.276Z,17.71
2022-10-08T09:09:24.485Z,17.83
2022-10-08T09:11:57.293Z,18.03
2022-10-08T09:14:37.218Z,18.17
2022-10-08T09:17:18.457Z,18.28
2022-10-08T09:19:51.886Z,18.36
2022-10-08T09:22:28.304Z,18.47
2022-10-08T09:25:04.701Z,18.55
2022-10-08T09:27:52.396Z,18.59
2022-10-08T09:30:42.296Z,18.63
2022-10-08T09:33:29.594Z,18.73
2022-10-08T09:36:01.844Z,18.83
2022-10-08T09:38:38.412Z,18.90
2022-10-08T09:41:19.012Z,18.93
2022-10-08T09:44:13.228Z,18.97
2022-10-08T09:46:45.856Z,18.96
2022-10-08T09:49:31.247Z,18.99
2022-10-08T09:52:07.325Z,19.05
2022-10-08T09:54:48.916Z,19.14
2022-10-08T09:57:23.433Z,19.16
2022-10-08T09:59:58.366Z,19.15
2022-10-08T10:02:35.958Z,19.18
2022-10-08T10:05:24.008Z,19.29
2022-10-08T10:07:56.263Z,19.40
2022-10-08T10:10:32.987Z,19.45
2022-10-08T10:13:12.035Z,19.46
2022-10-08T10:15:50.014Z,19.48
2022-10-08T10:18:27.863Z,19.48
2022-10-08T10:21:03.577Z,19.53
2022-10-08T10:23:40.626Z,19.57
2022-10-08T10:26:18.016Z,19.61
2022-10-08T10:28:56.175Z,19.62
2022-10-08T10:31:33.574Z,19.59
2022-10-08T10:34:12.332Z,19.50
2022-10-08T10:36:50.362Z,19.44
2022-10-08T10:39:33.333Z,19.51
2022-10-08T10:42:13.664Z,19.62
2022-10-08T10:44:53.737Z,19.72
2022-10-08T10:47:31.979Z,19.82
2022-10-08T10:50:04.876Z,19.83
2022-10-08T10:52:50.080Z,19.74
2022-10-08T10:55:31.375Z,19.60
2022-10-08T10:58:23.434Z,19.50
2022-10-08T11:01:04.336Z,19.41
2022-10-08T11:03:46.325Z,19.33
2022-10-08T11:06:47.509Z,19.23
2022-10-08T11:09:28.260Z,19.22
2022-10-08T11:12:05.557Z,19.24
2022-10-08T11:14:48.184Z,19.19
2022-10-08T11:17:34.632Z,19.15
2022-10-08T11:20:26.118Z,19.18
2022-10-08T11:23:04.282Z,19.25
2022-10-08T11:26:02.760Z,19.28
2022-10-08T11:28:46.416Z,19.30
2022-10-08T11:31:29.458Z,19.24
2022-10-08T11:34:03.821Z,19.20
2022-10-08T11:36:44.719Z,19.16
2022-10-08T11:39:21.802Z,19.10
2022-10-08T11:42:01.636Z,19.06
2022-10-08T11:44:34.128Z,19.01
2022-10-08T11:47:47.642Z,19.00
2022-10-08T11:50:32.090Z,18.95
2022-10-08T11:53:19.984Z,18.91
2022-10-08T11:55:55.872Z,18.88
2022-10-08T11:58:32.595Z,18.85
2022-10-08T12:01:07.055Z,18.81
2022-10-08T12:03:42.643Z,18.74
2022-10-08T12:06:20.392Z,18.71
2022-10-08T12:08:58.002Z,18.66
2022-10-08T12:11:52.043Z,18.62
2022-10-08T12:14:47.933Z,18.58
2022-10-08T12:17:20.394Z,18.56
2022-10-08T12:20:20.689Z,18.54
2022-10-08T12:23:08.661Z,18.52
2022-10-08T12:26:03.604Z,18.48
2022-10-08T12:28:50.568Z,18.46
2022-10-08T12:31:31.611Z,18.46
2022-10-08T12:34:14.084Z,18.48
2022-10-08T12:36:59.310Z,18.51
2022-10-08T12:39:38.045Z,18.54
2022-10-08T12:42:19.903Z,18.59
2022-10-08T12:45:04.704Z,18.65
2022-10-08T12:47:47.649Z,18.67
2022-10-08T12:50:34.996Z,18.68
2022-10-08T12:53:08.713Z,18.64
2022-10-08T12:55:51.131Z,18.61
2022-10-08T12:58:26.483Z,18.59
2022-10-08T13:00:59.411Z,18.55
2022-10-08T13:03:31.688Z,18.53
2022-10-08T13:06:18.196Z,18.53
2022-10-08T13:08:51.706Z,18.51
2022-10-08T13:11:24.083Z,18.47
2022-10-08T13:13:56.373Z,18.43
2022-10-08T13:16:45.760Z,18.42
2022-10-08T13:19:28.197Z,18.42
2022-10-08T13:22:02.381Z,18.41
2022-10-08T13:24:41.222Z,18.40
2022-10-08T13:27:28.712Z,18.40
2022-10-08T13:30:21.569Z,18.40
2022-10-08T13:33:04.918Z,18.38
2022-10-08T13:35:37.213Z,18.36
2022-10-08T13:38:17.833Z,18.34
2022-10-08T13:40:54.680Z,18.32
2022-10-08T13:43:27.686Z,18.32
2022-10-08T13:45:59.971Z,18.28
2022-10-08T13:48:32.229Z,18.24
2022-10-08T13:51:05.212Z,18.19
2022-10-08T13:53:41.213Z,18.14
2022-10-08T13:56:13.697Z,18.09
2022-10-08T13:58:45.855Z,18.06
2022-10-08T14:01:18.161Z,18.02
2022-10-08T14:03:50.431Z,18.00
2022-10-08T14:06:22.703Z,17.98
2022-10-08T14:08:55.273Z,17.93
2022-10-08T14:11:27.763Z,17.89
2022-10-08T14:14:00.027Z,17.81
2022-10-08T14:16:32.533Z,17.75
2022-10-08T14:19:07.537Z,17.70
2022-10-08T14:21:44.502Z,17.65
2022-10-08T14:24:17.383Z,17.63
2022-10-08T14:26:49.993Z,17.59
2022-10-08T14:29:22.275Z,17.56
2022-10-08T14:31:54.532Z,17.54
2022-10-08T14:34:26.779Z,17.52
2022-10-08T14:36:58.974Z,17.51
2022-10-08T14:39:31.638Z,17.49
2022-10-08T14:42:03.845Z,17.50
2022-10-08T14:44:36.092Z,17.51
2022-10-08T14:47:08.398Z,17.52
2022-10-08T14:49:40.611Z,17.50
2022-10-08T14:52:12.848Z,17.45
2022-10-08T14:54:45.129Z,17.41
2022-10-08T14:57:20.370Z,17.36
2022-10-08T14:59:52.695Z,17.33
2022-10-08T15:02:24.985Z,17.31
2022-10-08T15:04:57.311Z,17.30
2022-10-08T15:07:30.830Z,17.29
2022-10-08T15:10:03.168Z,17.27
2022-10-08T15:12:35.562Z,17.26
2022-10-08T15:15:09.759Z,17.22
2022-10-08T15:17:42.032Z,17.20
2022-10-08T15:20:14.333Z,17.17
2022-10-08T15:22:46.770Z,17.15
2022-10-08T15:25:19.213Z,17.12
2022-10-08T15:27:51.442Z,17.09
2022-10-08T15:30:24.532Z,17.07
2022-10-08T15:32:56.841Z,17.04
2022-10-08T15:35:29.219Z,17.01
2022-10-08T15:38:01.477Z,17.00
2022-10-08T15:40:34.584Z,16.98
2022-10-08T15:43:06.780Z,16.97
2022-10-08T15:45:44.705Z,16.95
2022-10-08T15:48:17.226Z,16.92
2022-10-08T15:51:00.446Z,16.89
2022-10-08T15:53:36.681Z,16.85
2022-10-08T15:56:11.956Z,16.80
2022-10-08T15:58:51.954Z,16.76
2022-10-08T16:01:25.844Z,16.71
2022-10-08T16:04:00.239Z,16.68
2022-10-08T16:06:36.636Z,16.64
2022-10-08T16:09:10.144Z,16.59
2022-10-08T16:11:42.893Z,16.54
2022-10-08T16:14:17.468Z,16.49
2022-10-08T16:16:50.508Z,16.45
2022-10-08T16:19:24.857Z,16.40
2022-10-08T16:21:58.799Z,16.36
2022-10-08T16:24:31.183Z,16.31
2022-10-08T16:27:03.500Z,16.29
2022-10-08T16:29:35.786Z,16.26
2022-10-08T16:32:08.074Z,16.22
2022-10-08T16:34:44.763Z,16.19
2022-10-08T16:37:17.337Z,16.14
2022-10-08T16:39:49.563Z,16.11
2022-10-08T16:42:21.779Z,16.07
2022-10-08T16:44:54.050Z,16.04
2022-10-08T16:47:26.278Z,16.02
2022-10-08T16:49:58.594Z,16.00
2022-10-08T16:52:30.800Z,15.98
2022-10-08T16:55:03.278Z,15.96
2022-10-08T16:57:35.594Z,15.92
2022-10-08T17:00:11.324Z,15.89
2022-10-08T17:02:43.604Z,15.86
2022-10-08T17:05:17.490Z,15.85
2022-10-08T17:07:49.749Z,15.83
2022-10-08T17:10:22.217Z,15.80
2022-10-08T17:12:54.446Z,15.76
2022-10-08T17:15:26.714Z,15.74
2022-10-08T17:17:59.098Z,15.72
2022-10-08T17:20:31.844Z,15.69
2022-10-08T17:23:04.118Z,15.66
2022-10-08T17:25:36.398Z,15.63
2022-10-08T17:28:08.680Z,15.58
2022-10-08T17:30:41.017Z,15.55
2022-10-08T17:33:13.275Z,15.50
2022-10-08T17:35:45.500Z,15.46
2022-10-08T17:38:17.744Z,15.43
2022-10-08T17:40:49.940Z,15.40
2022-10-08T17:43:22.196Z,15.37
2022-10-08T17:45:54.897Z,15.32
2022-10-08T17:48:27.146Z,15.28
2022-10-08T17:51:03.361Z,15.24
2022-10-08T17:53:35.976Z,15.21
2022-10-08T17:56:10.280Z,15.18
2022-10-08T17:58:42.776Z,15.16
2022-10-08T18:01:17.417Z,15.13
2022-10-08T18:03:54.877Z,15.13
2022-10-08T18:06:28.338Z,15.11
2022-10-08T18:09:02.066Z,15.09
2022-10-08T18:11:36.360Z,15.07
2022-10-08T18:14:09.021Z,15.05
2022-10-08T18:16:47.005Z,15.01
2022-10-08T18:19:21.207Z,14.97
2022-10-08T18:21:54.453Z,14.95
2022-10-08T18:24:27.238Z,14.93
2022-10-08T18:27:00.104Z,14.92
2022-10-08T18:29:32.446Z,14.91
2022-10-08T18:32:04.944Z,14.90
2022-10-08T18:34:37.177Z,14.88
2022-10-08T18:37:09.557Z,14.86
2022-10-08T18:39:42.181Z,14.85
2022-10-08T18:42:14.454Z,14.84
2022-10-08T18:44:46.703Z,14.83
2022-10-08T18:47:18.919Z,14.82
2022-10-08T18:49:51.240Z,14.83
2022-10-08T18:52:26.898Z,14.84
2022-10-08T18:54:59.159Z,14.85
2022-10-08T18:57:31.548Z,14.85
2022-10-08T19:00:04.389Z,14.87
2022-10-08T19:02:36.771Z,14.89
2022-10-08T19:05:10.505Z,14.90
2022-10-08T19:07:43.367Z,14.92
2022-10-08T19:10:15.645Z,14.92
2022-10-08T19:12:48.106Z,14.92
2022-10-08T19:15:21.642Z,14.92
2022-10-08T19:17:54.144Z,14.92
2022-10-08T19:20:26.428Z,14.91
2022-10-08T19:22:58.783Z,14.90
2022-10-08T19:25:32.706Z,14.88
2022-10-08T19:28:04.953Z,14.87
2022-10-08T19:30:37.196Z,14.85
2022-10-08T19:33:09.607Z,14.83
2022-10-08T19:35:42.098Z,14.83
2022-10-08T19:38:14.481Z,14.80
2022-10-08T19:40:46.767Z,14.74
2022-10-08T19:43:19.015Z,14.73
2022-10-08T19:45:51.219Z,14.73
2022-10-08T19:48:23.496Z,14.73
2022-10-08T19:50:55.889Z,14.74
2022-10-08T19:53:28.221Z,14.74
2022-10-08T19:56:00.665Z,14.74
2022-10-08T19:58:33.070Z,14.75
2022-10-08T20:01:10.032Z,14.77
2022-10-08T20:03:42.783Z,14.77
2022-10-08T20:06:21.703Z,14.77
2022-10-08T20:08:58.729Z,14.78
2022-10-08T20:11:33.131Z,14.77
2022-10-08T20:14:05.916Z,14.76
2022-10-08T20:16:40.670Z,14.74
2022-10-08T20:19:15.682Z,14.73
2022-10-08T20:21:49.238Z,14.70
2022-10-08T20:24:22.045Z,14.67
2022-10-08T20:26:54.487Z,14.64
2022-10-08T20:29:30.823Z,14.62
2022-10-08T20:32:03.621Z,14.59
2022-10-08T20:34:36.031Z,14.57
2022-10-08T20:37:08.317Z,14.56
2022-10-08T20:39:40.772Z,14.52
2022-10-08T20:42:13.028Z,14.50
2022-10-08T20:44:45.334Z,14.48
2022-10-08T20:47:17.665Z,14.47
2022-10-08T20:49:49.973Z,14.46
2022-10-08T20:52:22.257Z,14.43
2022-10-08T20:54:54.812Z,14.36
2022-10-08T20:57:27.219Z,14.33
2022-10-08T20:59:59.646Z,14.29
2022-10-08T21:02:32.172Z,14.26
2022-10-08T21:05:04.905Z,14.25
2022-10-08T21:07:37.305Z,14.21
2022-10-08T21:10:11.507Z,14.16
2022-10-08T21:12:43.969Z,14.14
2022-10-08T21:15:16.353Z,14.10
2022-10-08T21:17:48.720Z,14.07
2022-10-08T21:20:21.387Z,14.07
2022-10-08T21:22:53.981Z,14.05
2022-10-08T21:25:26.611Z,14.00
2022-10-08T21:27:58.866Z,13.97
2022-10-08T21:30:31.196Z,13.96
2022-10-08T21:33:03.676Z,13.94
2022-10-08T21:35:38.569Z,13.93
2022-10-08T21:38:10.901Z,13.90
2022-10-08T21:40:44.209Z,13.87
2022-10-08T21:43:16.512Z,13.86
2022-10-08T21:45:57.260Z,13.84
2022-10-08T21:48:30.870Z,13.82
2022-10-08T21:51:05.804Z,13.78
2022-10-08T21:53:41.297Z,13.71
2022-10-08T21:56:16.469Z,13.66
2022-10-08T21:58:48.049Z,13.61
2022-10-08T22:01:26.389Z,13.55
2022-10-08T22:04:00.475Z,13.51
2022-10-08T22:06:35.587Z,13.48
2022-10-08T22:09:10.762Z,13.45
2022-10-08T22:11:43.653Z,13.44
2022-10-08T22:14:16.552Z,13.41
2022-10-08T22:16:49.357Z,13.37
2022-10-08T22:19:22.221Z,13.31
2022-10-08T22:21:54.574Z,13.25
2022-10-08T22:24:27.186Z,13.20
2022-10-08T22:26:59.481Z,13.16
2022-10-08T22:29:31.718Z,13.13
2022-10-08T22:32:04.563Z,13.12
2022-10-08T22:34:38.192Z,13.10
2022-10-08T22:37:10.714Z,13.07
2022-10-08T22:39:43.103Z,13.04
2022-10-08T22:42:15.368Z,13.03
2022-10-08T22:44:47.663Z,13.03
2022-10-08T22:47:22.577Z,13.01
2022-10-08T22:49:53.307Z,12.99
2022-10-08T22:52:25.732Z,12.96
2022-10-08T22:54:58.073Z,12.93
2022-10-08T22:57:30.256Z,12.90
2022-10-08T23:00:03.799Z,12.88
2022-10-08T23:02:36.737Z,12.88
2022-10-08T23:05:11.148Z,12.86
2022-10-08T23:07:43.424Z,12.82
2022-10-08T23:10:15.681Z,12.80
2022-10-08T23:12:48.029Z,12.77
2022-10-08T23:15:20.558Z,12.77
2022-10-08T23:17:52.721Z,12.75
2022-10-08T23:20:25.003Z,12.72
2022-10-08T23:22:57.278Z,12.67
2022-10-08T23:25:29.524Z,12.65
2022-10-08T23:28:01.769Z,12.61
2022-10-08T23:30:42.903Z,12.60
2022-10-08T23:33:15.806Z,12.61
2022-10-08T23:35:54.634Z,12.60
2022-10-08T23:38:26.950Z,12.58
2022-10-08T23:41:02.828Z,12.57
2022-10-08T23:43:38.683Z,12.55
2022-10-08T23:46:13.217Z,12.54
2022-10-08T23:48:46.321Z,12.54
2022-10-08T23:51:19.507Z,12.53
2022-10-08T23:53:52.378Z,12.55
2022-10-08T23:56:25.104Z,12.56
2022-10-08T23:58:57.379Z,12.55
